Time;durP1;ratioP1;P1;durP2;ratioP2;P2;SDS_P1;SDS_P2;PMS_P1;PMS_P2;Temp;Humidity;BMP_temperature;BMP_pressure;BME280_temperature;BME280_humidity;BME280_pressure;Samples;Min_cycle;Max_cycle;Signal;HPM_P1;HPM_P2
2021/05/27 00:00:37;;;;;;;6.53;4.57;;;10.80;99.90;;;;;;4938266;29;20881;-71
2021/05/27 00:03:07;;;;;;;8.53;4.03;;;10.80;99.90;;;;;;4936597;29;20443;-71
2021/05/27 00:05:35;;;;;;;9.17;4.67;;;10.80;99.90;;;;;;4935504;29;20539;-71
2021/05/27 00:08:04;;;;;;;7.53;5.23;;;10.80;99.90;;;;;;4935470;29;20444;-71
2021/05/27 00:10:34;;;;;;;6.50;4.70;;;10.80;99.90;;;;;;4935630;29;20985;-72
2021/05/27 00:13:02;;;;;;;7.77;4.57;;;10.80;99.90;;;;;;4936661;29;20539;-73
2021/05/27 00:15:39;;;;;;;6.07;4.60;;;10.80;99.90;;;;;;4935437;29;20829;-73
2021/05/27 00:18:07;;;;;;;14.27;4.80;;;10.80;99.90;;;;;;4936645;29;20440;-74
2021/05/27 00:20:35;;;;;;;7.57;4.40;;;10.80;99.90;;;;;;4936873;29;20916;-73
2021/05/27 00:23:03;;;;;;;5.60;4.67;;;10.80;99.90;;;;;;4936779;29;20952;-73
2021/05/27 00:25:31;;;;;;;8.67;4.87;;;10.80;99.90;;;;;;4936503;29;20448;-74
2021/05/27 00:27:59;;;;;;;5.80;4.43;;;10.80;99.90;;;;;;4935112;29;20543;-73
2021/05/27 00:30:26;;;;;;;7.13;5.00;;;10.80;99.90;;;;;;4936305;29;20474;-73
2021/05/27 00:32:54;;;;;;;7.67;4.70;;;10.80;99.90;;;;;;4936679;29;20460;-73
2021/05/27 00:35:22;;;;;;;8.17;4.40;;;10.70;99.90;;;;;;4936580;29;20589;-73
2021/05/27 00:37:49;;;;;;;7.30;4.63;;;10.70;99.90;;;;;;4936299;29;20578;-73
2021/05/27 00:40:19;;;;;;;6.73;4.60;;;10.70;99.90;;;;;;4934894;29;20508;-73
2021/05/27 00:42:48;;;;;;;7.40;4.63;;;10.70;99.90;;;;;;4935092;29;20491;-74
2021/05/27 00:45:17;;;;;;;5.93;4.27;;;10.80;99.90;;;;;;4935316;29;20454;-74
2021/05/27 00:47:46;;;;;;;6.77;4.80;;;10.70;99.90;;;;;;4936528;29;20436;-73
2021/05/27 00:50:21;;;;;;;9.70;4.60;;;10.80;99.90;;;;;;4935430;29;20528;-74
2021/05/27 00:52:50;;;;;;;9.83;4.73;;;10.70;99.90;;;;;;4934934;29;20603;-74
2021/05/27 00:55:20;;;;;;;14.80;6.50;;;10.70;99.90;;;;;;4936054;29;20514;-74
2021/05/27 00:57:49;;;;;;;8.37;4.13;;;10.70;99.90;;;;;;4936105;29;20889;-73
2021/05/27 01:00:19;;;;;;;5.07;4.57;;;10.70;99.90;;;;;;4936094;29;20554;-74
2021/05/27 01:02:47;;;;;;;7.07;4.70;;;10.70;99.90;;;;;;4934808;29;20444;-74
2021/05/27 01:05:17;;;;;;;9.20;4.50;;;10.70;99.90;;;;;;4934451;29;20491;-74
2021/05/27 01:07:45;;;;;;;9.27;4.53;;;10.70;99.90;;;;;;4936509;29;20439;-73
2021/05/27 01:10:19;;;;;;;8.00;4.83;;;10.70;99.90;;;;;;4939959;29;20475;-74
2021/05/27 01:12:48;;;;;;;6.40;4.20;;;10.70;99.90;;;;;;4934730;29;20534;-74
2021/05/27 01:15:30;;;;;;;8.70;5.47;;;10.70;99.90;;;;;;4934665;29;20865;-73
2021/05/27 01:18:00;;;;;;;6.20;4.80;;;10.70;99.90;;;;;;4935579;29;20546;-73
2021/05/27 01:20:30;;;;;;;8.10;4.40;;;10.70;99.90;;;;;;4936117;29;20483;-74
2021/05/27 01:22:59;;;;;;;5.57;4.80;;;10.70;99.90;;;;;;4935329;29;20817;-73
2021/05/27 01:25:27;;;;;;;6.70;4.37;;;10.70;99.90;;;;;;4934622;29;20460;-73
2021/05/27 01:27:56;;;;;;;5.13;4.17;;;10.70;99.90;;;;;;4934638;29;20974;-73
2021/05/27 01:30:24;;;;;;;5.83;5.00;;;10.70;99.90;;;;;;4934505;29;20479;-74
2021/05/27 01:32:52;;;;;;;4.90;4.50;;;10.70;99.90;;;;;;4936129;29;20442;-73
2021/05/27 01:35:24;;;;;;;6.23;5.30;;;10.70;99.90;;;;;;4934544;29;20869;-74
2021/05/27 01:37:53;;;;;;;6.50;4.30;;;10.70;99.90;;;;;;4935076;29;20479;-73
2021/05/27 01:40:25;;;;;;;6.30;5.30;;;10.60;99.90;;;;;;4934320;29;20471;-74
2021/05/27 01:42:55;;;;;;;11.30;5.30;;;10.60;99.90;;;;;;4934566;29;20436;-73
2021/05/27 01:45:22;;;;;;;7.67;4.87;;;10.70;99.90;;;;;;4934791;29;20452;-74
2021/05/27 01:47:54;;;;;;;7.50;5.27;;;10.60;99.90;;;;;;4935687;29;21004;-74
2021/05/27 01:50:22;;;;;;;7.43;4.33;;;10.60;99.90;;;;;;4934838;29;20491;-74
2021/05/27 01:52:55;;;;;;;6.10;4.80;;;10.60;99.90;;;;;;4934452;29;20492;-74
2021/05/27 01:55:27;;;;;;;7.30;5.07;;;10.60;99.90;;;;;;4935521;29;20819;-74
2021/05/27 01:57:55;;;;;;;13.03;5.03;;;10.60;99.90;;;;;;4934396;29;20502;-74
2021/05/27 02:00:25;;;;;;;5.47;4.77;;;10.60;99.90;;;;;;4934257;29;20472;-73
2021/05/27 02:02:58;;;;;;;7.13;4.80;;;10.60;99.90;;;;;;4934646;29;20463;-74
2021/05/27 02:05:30;;;;;;;10.63;5.22;;;10.60;99.90;;;;;;4933758;29;20499;-74
2021/05/27 02:08:00;;;;;;;8.73;4.93;;;10.60;99.90;;;;;;4934285;29;20295;-74
2021/05/27 02:10:49;;;;;;;8.67;5.70;;;10.60;99.90;;;;;;4935154;29;20997;-74
2021/05/27 02:13:17;;;;;;;7.43;5.33;;;10.60;99.90;;;;;;4935730;29;20539;-74
2021/05/27 02:15:45;;;;;;;7.50;5.20;;;10.60;99.90;;;;;;4935948;29;20448;-74
2021/05/27 02:18:13;;;;;;;6.30;4.80;;;10.60;99.90;;;;;;4937552;29;20884;-74
2021/05/27 02:20:42;;;;;;;6.10;4.40;;;10.60;99.90;;;;;;4938636;29;20925;-74
2021/05/27 02:23:11;;;;;;;6.93;5.10;;;10.50;99.90;;;;;;4937462;29;20874;-74
2021/05/27 02:25:44;;;;;;;7.70;5.03;;;10.50;99.90;;;;;;4938898;29;20456;-74
2021/05/27 02:28:35;;;;;;;7.57;4.47;;;10.60;99.90;;;;;;4938054;29;20487;-73
2021/05/27 02:31:04;;;;;;;7.07;4.90;;;10.60;99.90;;;;;;4938544;29;20985;-74
2021/05/27 02:33:37;;;;;;;5.20;4.33;;;10.60;99.90;;;;;;4937369;29;20446;-74
2021/05/27 02:36:18;;;;;;;6.30;4.23;;;10.60;99.90;;;;;;4937324;29;20444;-74
2021/05/27 02:38:47;;;;;;;5.70;4.20;;;10.60;99.90;;;;;;4937230;29;20444;-74
2021/05/27 02:41:19;;;;;;;4.70;4.07;;;10.60;99.90;;;;;;4937346;29;20886;-74
2021/05/27 02:43:50;;;;;;;7.17;5.13;;;10.60;99.90;;;;;;4937426;29;20455;-73
2021/05/27 02:46:20;;;;;;;8.37;4.30;;;10.60;99.90;;;;;;4937984;29;20467;-73
2021/05/27 02:48:55;;;;;;;7.57;5.40;;;10.60;99.90;;;;;;4937342;29;20475;-73
2021/05/27 02:51:23;;;;;;;8.30;4.87;;;10.60;99.90;;;;;;4938382;29;20436;-74
2021/05/27 02:53:51;;;;;;;9.73;4.70;;;10.60;99.90;;;;;;4938120;29;20456;-74
2021/05/27 02:56:19;;;;;;;9.90;4.07;;;10.60;99.90;;;;;;4936791;29;20534;-73
2021/05/27 02:58:49;;;;;;;7.53;4.70;;;10.60;99.90;;;;;;4936741;29;20468;-74
2021/05/27 03:01:18;;;;;;;7.07;4.17;;;10.60;99.90;;;;;;4936776;29;20486;-73
2021/05/27 03:03:51;;;;;;;6.40;4.33;;;10.60;99.90;;;;;;4938585;29;20470;-73
2021/05/27 03:06:19;;;;;;;7.73;4.47;;;10.60;99.90;;;;;;4937994;29;20455;-73
2021/05/27 03:08:49;;;;;;;5.43;4.70;;;10.60;99.90;;;;;;4938516;29;20431;-74
2021/05/27 03:11:20;;;;;;;6.40;4.03;;;10.60;99.90;;;;;;4936697;29;20861;-73
2021/05/27 03:13:51;;;;;;;6.30;4.80;;;10.60;99.90;;;;;;4939591;29;20448;-73
2021/05/27 03:16:21;;;;;;;8.27;4.93;;;10.60;99.90;;;;;;4936625;29;20467;-74
2021/05/27 03:18:51;;;;;;;12.13;4.60;;;10.60;99.90;;;;;;4937793;29;20448;-74
2021/05/27 03:21:21;;;;;;;7.47;4.13;;;10.60;99.90;;;;;;4937719;29;20475;-74
2021/05/27 03:23:50;;;;;;;7.43;5.10;;;10.60;99.90;;;;;;4936409;29;20455;-73
2021/05/27 03:26:17;;;;;;;7.73;4.43;;;10.60;99.90;;;;;;4936366;29;20507;-74
2021/05/27 03:28:45;;;;;;;7.40;4.80;;;10.60;99.90;;;;;;4937292;29;20435;-74
2021/05/27 03:31:17;;;;;;;11.00;4.70;;;10.60;99.90;;;;;;4936241;29;20395;-74
2021/05/27 03:33:47;;;;;;;6.00;5.03;;;10.60;99.90;;;;;;4937344;29;20651;-74
2021/05/27 03:36:16;;;;;;;7.70;5.17;;;10.60;99.90;;;;;;4937762;29;20898;-73
2021/05/27 03:38:47;;;;;;;7.80;4.80;;;10.60;99.90;;;;;;4937390;29;20463;-73
2021/05/27 03:41:17;;;;;;;6.13;4.53;;;10.60;99.90;;;;;;4936288;29;20841;-73
2021/05/27 03:43:45;;;;;;;8.33;4.57;;;10.60;99.90;;;;;;4935901;29;20452;-74
2021/05/27 03:46:16;;;;;;;6.03;4.43;;;10.70;99.90;;;;;;4935914;29;20456;-73
2021/05/27 03:48:44;;;;;;;7.23;4.70;;;10.70;99.90;;;;;;4935892;29;20885;-73
2021/05/27 03:51:12;;;;;;;7.37;4.87;;;10.60;99.90;;;;;;4935662;29;20578;-73
2021/05/27 03:53:40;;;;;;;7.00;4.10;;;10.70;99.90;;;;;;4935677;29;20459;-73
2021/05/27 03:56:08;;;;;;;6.07;4.73;;;10.70;99.90;;;;;;4935702;29;20535;-73
2021/05/27 04:01:31;;;;;;;8.57;5.77;;;10.70;99.90;;;;;;4936098;29;20499;-74
2021/05/27 04:07:11;;;;;;;6.03;5.37;;;10.70;99.90;;;;;;4936901;29;20846;-73
2021/05/27 04:09:40;;;;;;;9.20;5.00;;;10.70;99.90;;;;;;4936923;29;20881;-73
2021/05/27 04:17:42;;;;;;;7.23;5.00;;;10.70;99.90;;;;;;4935426;29;20490;-74
2021/05/27 04:20:11;;;;;;;6.50;5.77;;;10.70;99.90;;;;;;4936607;29;20511;-74
2021/05/27 04:22:40;;;;;;;9.07;4.80;;;10.70;99.90;;;;;;4936732;29;20471;-74
2021/05/27 04:25:09;;;;;;;8.37;5.47;;;10.70;99.90;;;;;;4936856;29;20475;-74
2021/05/27 04:27:37;;;;;;;7.00;5.60;;;10.70;99.90;;;;;;4935273;29;20933;-74
2021/05/27 04:30:13;;;;;;;7.50;5.73;;;10.70;99.90;;;;;;4945574;29;20563;-74
2021/05/27 04:33:01;;;;;;;8.53;5.37;;;10.70;99.90;;;;;;4932094;29;20489;-74
2021/05/27 04:35:31;;;;;;;7.00;5.30;;;10.70;99.90;;;;;;4927447;29;20483;-74
2021/05/27 04:38:01;;;;;;;7.77;5.50;;;10.70;99.90;;;;;;4936269;29;20946;-71
2021/05/27 04:40:29;;;;;;;10.60;5.90;;;10.70;99.90;;;;;;4934612;29;21005;-71
2021/05/27 04:42:58;;;;;;;6.83;5.47;;;10.80;99.90;;;;;;4936072;29;20483;-71
2021/05/27 04:45:26;;;;;;;7.43;5.60;;;10.80;99.90;;;;;;4934944;29;20471;-72
2021/05/27 04:47:57;;;;;;;6.17;4.80;;;10.80;99.90;;;;;;4936434;29;20443;-72
2021/05/27 04:50:25;;;;;;;8.40;5.20;;;10.80;99.90;;;;;;4934868;29;20965;-73
2021/05/27 04:52:53;;;;;;;8.90;5.97;;;10.90;99.90;;;;;;4936409;29;20436;-74
2021/05/27 04:55:21;;;;;;;13.17;5.00;;;10.90;99.90;;;;;;4934740;29;20527;-74
2021/05/27 04:57:49;;;;;;;9.50;4.60;;;11.00;99.90;;;;;;4936434;29;20539;-74
2021/05/27 05:00:18;;;;;;;7.90;5.07;;;11.00;99.90;;;;;;4934500;29;20471;-74
2021/05/27 05:02:50;;;;;;;10.30;5.67;;;11.00;99.90;;;;;;4936608;29;20996;-74
2021/05/27 05:05:20;;;;;;;8.60;4.80;;;11.00;99.90;;;;;;4934333;29;20539;-75
2021/05/27 05:07:49;;;;;;;7.90;4.53;;;11.10;99.90;;;;;;4935524;29;20950;-75
2021/05/27 05:10:18;;;;;;;9.57;5.07;;;11.10;99.90;;;;;;4932953;29;20463;-75
2021/05/27 05:12:46;;;;;;;10.27;5.60;;;11.10;99.90;;;;;;4935990;29;20448;-75
2021/05/27 05:15:16;;;;;;;7.93;4.33;;;11.10;99.90;;;;;;4935937;29;20524;-74
2021/05/27 05:17:47;;;;;;;5.97;4.50;;;11.20;99.90;;;;;;4936252;29;20503;-74
2021/05/27 05:20:15;;;;;;;7.60;4.17;;;11.20;99.90;;;;;;4934661;29;20849;-74
2021/05/27 05:22:43;;;;;;;5.67;3.90;;;11.20;99.90;;;;;;4935897;29;21000;-74
2021/05/27 05:25:11;;;;;;;8.27;4.23;;;11.20;99.90;;;;;;4935902;29;20452;-74
2021/05/27 05:27:39;;;;;;;6.60;4.27;;;11.20;99.90;;;;;;4934637;29;20462;-72
2021/05/27 05:30:09;;;;;;;7.20;4.00;;;11.30;99.90;;;;;;4934507;29;20474;-69
2021/05/27 05:32:36;;;;;;;5.53;3.73;;;11.30;99.90;;;;;;4936076;29;20447;-71
2021/05/27 05:35:06;;;;;;;9.83;4.00;;;11.30;99.90;;;;;;4934550;29;20452;-71
2021/05/27 05:37:34;;;;;;;5.70;3.40;;;11.40;99.90;;;;;;4934490;29;20449;-71
2021/05/27 05:40:04;;;;;;;5.10;3.90;;;11.40;99.90;;;;;;4934402;29;20487;-71
2021/05/27 05:42:32;;;;;;;8.50;3.43;;;11.40;99.90;;;;;;4935648;29;20575;-72
2021/05/27 05:44:59;;;;;;;4.80;3.47;;;11.40;99.90;;;;;;4935706;29;20532;-72
2021/05/27 05:47:27;;;;;;;8.63;4.17;;;11.40;99.90;;;;;;4934179;29;20813;-72
2021/05/27 05:49:55;;;;;;;8.70;4.20;;;11.40;99.90;;;;;;4936367;29;20510;-72
2021/05/27 05:52:25;;;;;;;7.60;3.60;;;11.40;99.90;;;;;;4938224;29;20534;-72
2021/05/27 05:54:53;;;;;;;5.27;4.50;;;11.40;99.90;;;;;;4939379;29;20450;-72
2021/05/27 05:57:23;;;;;;;7.10;4.60;;;11.40;99.90;;;;;;4937816;29;20464;-72
2021/05/27 05:59:51;;;;;;;6.10;3.40;;;11.50;99.90;;;;;;4937831;29;20498;-72
2021/05/27 06:02:19;;;;;;;6.47;3.60;;;11.50;99.90;;;;;;4939261;29;20984;-72
2021/05/27 06:04:46;;;;;;;4.90;3.27;;;11.50;99.90;;;;;;4937818;29;20447;-72
2021/05/27 06:07:36;;;;;;;5.50;3.30;;;11.50;99.90;;;;;;4938009;29;20471;-72
2021/05/27 06:10:05;;;;;;;7.60;3.40;;;11.60;99.90;;;;;;4937643;29;20495;-72
2021/05/27 06:12:34;;;;;;;6.90;2.97;;;11.60;99.90;;;;;;4939675;29;20436;-72
2021/05/27 06:15:03;;;;;;;5.60;3.53;;;11.70;99.90;;;;;;4938871;29;20468;-72
2021/05/27 06:17:31;;;;;;;6.00;3.13;;;11.80;99.90;;;;;;4938773;29;20439;-71
2021/05/27 06:19:58;;;;;;;5.20;3.37;;;11.80;99.90;;;;;;4937362;29;20495;-72
2021/05/27 06:22:33;;;;;;;6.47;2.60;;;11.90;99.90;;;;;;4937434;29;20503;-72
2021/05/27 06:25:00;;;;;;;5.63;3.03;;;12.10;99.90;;;;;;4937413;29;20450;-71
2021/05/27 06:27:28;;;;;;;5.10;2.30;;;12.20;99.90;;;;;;4937343;29;20444;-71
2021/05/27 06:29:57;;;;;;;4.07;2.23;;;12.30;99.90;;;;;;4938516;29;20491;-71
2021/05/27 06:32:24;;;;;;;5.40;2.83;;;12.30;99.90;;;;;;4937327;29;20535;-72
2021/05/27 06:34:52;;;;;;;3.17;2.30;;;12.40;99.90;;;;;;4937185;29;20875;-71
2021/05/27 06:37:20;;;;;;;4.33;2.30;;;12.40;99.90;;;;;;4937592;29;20444;-74
2021/05/27 06:39:47;;;;;;;4.07;2.10;;;12.30;99.90;;;;;;4937199;29;20471;-74
2021/05/27 06:42:15;;;;;;;4.63;2.27;;;12.40;99.90;;;;;;4937407;29;20833;-74
2021/05/27 06:44:47;;;;;;;2.70;2.10;;;12.40;99.90;;;;;;4938997;29;20447;-74
2021/05/27 06:47:16;;;;;;;3.70;1.93;;;12.40;99.90;;;;;;4938352;29;20471;-74
2021/05/27 06:49:44;;;;;;;4.00;2.03;;;12.40;99.90;;;;;;4936911;29;20563;-74
2021/05/27 06:52:11;;;;;;;6.57;2.10;;;12.40;99.90;;;;;;4937044;29;20547;-74
2021/05/27 06:54:39;;;;;;;5.73;2.70;;;12.60;99.90;;;;;;4936911;29;20459;-72
2021/05/27 06:57:07;;;;;;;5.43;2.67;;;12.80;99.90;;;;;;4936807;29;20444;-71
2021/05/27 06:59:34;;;;;;;6.80;2.70;;;13.00;99.90;;;;;;4936689;29;20472;-72
2021/05/27 07:02:02;;;;;;;3.97;2.20;;;13.30;99.90;;;;;;4937595;29;20443;-72
2021/05/27 07:04:31;;;;;;;3.10;2.30;;;13.40;99.90;;;;;;4936699;29;20532;-72
2021/05/27 07:06:59;;;;;;;2.23;1.57;;;13.60;99.90;;;;;;4936734;29;20897;-72
2021/05/27 07:09:26;;;;;;;3.43;2.07;;;13.60;99.90;;;;;;4937816;29;20490;-72
2021/05/27 07:11:55;;;;;;;3.83;1.97;;;13.60;99.90;;;;;;4936562;29;20829;-72
2021/05/27 07:14:22;;;;;;;3.00;1.30;;;13.50;99.90;;;;;;4937768;29;20435;-72
2021/05/27 07:16:50;;;;;;;2.23;1.73;;;13.50;99.90;;;;;;4936552;29;20547;-72
2021/05/27 07:19:18;;;;;;;3.50;1.80;;;13.40;99.90;;;;;;4937740;29;20506;-72
2021/05/27 07:21:46;;;;;;;3.40;2.03;;;13.30;99.90;;;;;;4937687;29;20447;-72
2021/05/27 07:24:14;;;;;;;5.20;2.20;;;13.30;99.90;;;;;;4936242;29;20868;-72
2021/05/27 07:26:44;;;;;;;3.90;2.50;;;13.30;99.90;;;;;;4936274;29;20542;-72
2021/05/27 07:29:12;;;;;;;2.73;1.83;;;13.30;99.90;;;;;;4936474;29;21221;-72
2021/05/27 07:31:40;;;;;;;5.33;2.00;;;13.40;99.90;;;;;;4936217;29;20483;-72
2021/05/27 07:34:08;;;;;;;6.17;2.20;;;13.40;99.90;;;;;;4936095;29;20451;-72
2021/05/27 07:36:35;;;;;;;3.30;2.10;;;13.50;99.90;;;;;;4936175;29;20436;-71
2021/05/27 07:39:04;;;;;;;4.17;1.90;;;13.50;99.90;;;;;;4936026;29;20475;-72
2021/05/27 07:41:32;;;;;;;2.93;2.50;;;13.50;99.90;;;;;;4936089;29;20455;-72
2021/05/27 07:43:59;;;;;;;3.70;2.07;;;13.60;99.90;;;;;;4937390;29;20530;-72
2021/05/27 07:46:27;;;;;;;3.20;1.93;;;13.60;99.90;;;;;;4937285;29;20505;-72
2021/05/27 07:48:55;;;;;;;5.63;2.50;;;13.60;99.90;;;;;;4936617;29;20446;-72
2021/05/27 07:51:22;;;;;;;4.17;2.30;;;13.70;99.90;;;;;;4937191;29;20220;-72
2021/05/27 07:53:50;;;;;;;4.23;2.43;;;13.80;99.90;;;;;;4936903;29;20471;-72
2021/05/27 07:56:19;;;;;;;2.50;1.97;;;13.80;99.90;;;;;;4935756;29;20427;-72
2021/05/27 07:58:46;;;;;;;4.78;2.40;;;13.80;99.90;;;;;;4936504;29;20536;-72
2021/05/27 08:01:15;;;;;;;2.70;2.03;;;13.90;99.90;;;;;;4936859;29;20774;-72
2021/05/27 08:03:42;;;;;;;3.60;1.67;;;13.90;99.90;;;;;;4936783;29;20968;-72
2021/05/27 08:06:10;;;;;;;4.30;1.90;;;13.80;99.90;;;;;;4935557;29;20418;-72
2021/05/27 08:08:38;;;;;;;3.23;1.70;;;13.80;99.90;;;;;;4936842;29;20429;-71
2021/05/27 08:11:05;;;;;;;3.20;1.63;;;13.80;99.90;;;;;;4936780;29;20426;-72
2021/05/27 08:13:34;;;;;;;4.53;2.20;;;13.70;99.90;;;;;;4934606;29;20448;-72
2021/05/27 08:16:02;;;;;;;3.70;1.70;;;13.70;99.90;;;;;;4935389;29;20426;-71
2021/05/27 08:18:29;;;;;;;4.53;1.83;;;13.70;99.90;;;;;;4935351;29;20458;-72
2021/05/27 08:20:59;;;;;;;3.20;1.90;;;13.70;99.90;;;;;;4937167;29;20527;-73
2021/05/27 08:23:27;;;;;;;2.90;1.90;;;13.70;99.90;;;;;;4936535;29;20958;-74
2021/05/27 08:25:55;;;;;;;2.90;2.00;;;13.70;99.90;;;;;;4935345;29;20434;-74
2021/05/27 08:28:22;;;;;;;4.80;1.97;;;13.70;99.90;;;;;;4935297;29;21044;-74
2021/05/27 08:30:51;;;;;;;3.10;1.90;;;13.70;99.90;;;;;;4935204;29;20571;-72
2021/05/27 08:33:19;;;;;;;4.27;2.27;;;13.70;99.90;;;;;;4935462;29;20458;-72
2021/05/27 08:35:46;;;;;;;3.70;1.97;;;13.70;99.90;;;;;;4936650;29;20439;-71
2021/05/27 08:38:14;;;;;;;5.47;1.80;;;13.70;99.90;;;;;;4935065;29;20426;-72
2021/05/27 08:40:41;;;;;;;3.37;2.17;;;13.70;99.90;;;;;;4934993;29;20471;-72
2021/05/27 08:43:12;;;;;;;4.60;1.90;;;13.70;99.90;;;;;;4934874;29;20538;-72
2021/05/27 08:45:47;;;;;;;5.47;1.83;;;13.70;99.90;;;;;;4936673;29;20519;-72
2021/05/27 08:48:19;;;;;;;2.80;1.57;;;13.70;99.90;;;;;;4934999;29;20456;-72
2021/05/27 08:50:47;;;;;;;4.40;1.77;;;13.60;99.90;;;;;;4934879;29;20854;-72
2021/05/27 08:53:16;;;;;;;10.73;2.67;;;13.60;99.90;;;;;;4936307;29;20850;-72
2021/05/27 08:55:45;;;;;;;4.90;1.70;;;13.60;99.90;;;;;;4936191;29;20452;-72
2021/05/27 08:58:14;;;;;;;4.10;2.07;;;13.60;99.90;;;;;;4934804;29;20545;-71
2021/05/27 09:00:42;;;;;;;2.17;1.80;;;13.60;99.90;;;;;;4936326;29;20872;-72
2021/05/27 09:03:11;;;;;;;3.10;2.00;;;13.60;99.90;;;;;;4936050;29;20479;-72
2021/05/27 09:05:40;;;;;;;3.60;2.20;;;13.70;99.90;;;;;;4936061;29;20436;-71
2021/05/27 09:08:09;;;;;;;3.70;1.90;;;13.70;99.90;;;;;;4935893;29;20436;-72
2021/05/27 09:10:42;;;;;;;7.57;2.50;;;13.80;99.90;;;;;;4936451;29;20473;-71
2021/05/27 09:13:11;;;;;;;2.88;2.00;;;13.80;99.90;;;;;;4934860;29;20435;-71
2021/05/27 09:15:39;;;;;;;3.20;1.90;;;13.90;99.90;;;;;;4936505;29;20223;-71
2021/05/27 09:18:07;;;;;;;4.73;2.03;;;13.90;99.90;;;;;;4936424;29;20846;-71
2021/05/27 09:20:35;;;;;;;4.80;2.27;;;13.80;99.90;;;;;;4936976;29;20548;-72
2021/05/27 09:23:15;;;;;;;4.20;2.20;;;13.80;99.90;;;;;;4934427;29;20907;-72
2021/05/27 09:25:44;;;;;;;4.60;2.10;;;13.80;99.90;;;;;;4937362;29;20207;-72
2021/05/27 09:28:18;;;;;;;6.13;2.40;;;13.80;99.90;;;;;;4939690;29;20940;-73
2021/05/27 09:30:48;;;;;;;2.40;2.00;;;13.80;99.90;;;;;;4940657;29;20895;-72
2021/05/27 09:33:16;;;;;;;3.50;2.47;;;13.70;99.90;;;;;;4940506;29;20467;-73
2021/05/27 09:35:44;;;;;;;4.50;2.40;;;13.70;99.90;;;;;;4941640;29;20534;-74
2021/05/27 09:38:14;;;;;;;5.97;3.10;;;13.60;99.90;;;;;;4939892;29;20689;-75
2021/05/27 09:40:44;;;;;;;3.10;2.37;;;13.60;99.90;;;;;;4939837;29;20547;-75
2021/05/27 09:43:20;;;;;;;5.07;2.90;;;13.50;99.90;;;;;;4939499;29;20476;-75
2021/05/27 09:46:00;;;;;;;4.30;2.07;;;13.50;99.90;;;;;;4938297;29;20444;-74
2021/05/27 09:48:28;;;;;;;2.80;2.50;;;13.50;99.90;;;;;;4939713;29;20438;-75
2021/05/27 09:50:56;;;;;;;5.33;2.10;;;13.50;99.90;;;;;;4938040;29;20480;-75
2021/05/27 09:53:26;;;;;;;5.67;2.50;;;13.40;99.90;;;;;;4938238;29;20467;-74
2021/05/27 09:55:55;;;;;;;6.50;2.73;;;13.40;99.90;;;;;;4938058;29;20410;-74
2021/05/27 09:58:25;;;;;;;4.73;2.73;;;13.40;99.90;;;;;;4938065;29;20807;-74
2021/05/27 10:00:57;;;;;;;3.60;2.27;;;13.40;99.90;;;;;;4937931;29;20865;-74
2021/05/27 10:03:35;;;;;;;4.13;2.77;;;13.50;99.90;;;;;;4938072;29;20833;-74
2021/05/27 10:06:09;;;;;;;6.53;2.70;;;13.60;99.90;;;;;;4939445;29;20432;-72
2021/05/27 10:08:53;;;;;;;4.57;2.40;;;13.80;99.90;;;;;;4939042;29;20432;-72
2021/05/27 10:11:23;;;;;;;2.97;1.97;;;14.00;99.90;;;;;;4938979;29;20405;-72
2021/05/27 10:13:52;;;;;;;7.60;2.13;;;14.10;99.90;;;;;;4937662;29;20429;-72
2021/05/27 10:16:22;;;;;;;5.30;1.80;;;14.20;99.90;;;;;;4939001;29;20475;-72
2021/05/27 10:18:54;;;;;;;3.17;1.80;;;14.20;99.90;;;;;;4937836;29;20462;-72
2021/05/27 10:21:24;;;;;;;3.20;2.00;;;14.30;99.90;;;;;;4939385;29;20462;-72
2021/05/27 10:23:53;;;;;;;3.60;1.67;;;14.30;99.90;;;;;;4938639;29;21004;-72
2021/05/27 10:26:22;;;;;;;4.77;1.80;;;14.40;99.90;;;;;;4938965;29;20506;-72
2021/05/27 10:29:13;;;;;;;3.10;1.80;;;14.40;99.90;;;;;;4937409;29;20515;-72
2021/05/27 10:31:46;;;;;;;2.83;1.73;;;14.30;99.90;;;;;;4937396;29;20423;-72
2021/05/27 10:34:42;;;;;;;2.70;1.27;;;14.30;99.90;;;;;;4938775;29;20494;-72
2021/05/27 10:37:10;;;;;;;3.20;2.07;;;14.30;99.90;;;;;;4904686;29;20449;-73
2021/05/27 10:39:39;;;;;;;2.08;1.55;;;14.30;99.90;;;;;;4937800;29;20431;-72
2021/05/27 10:42:09;;;;;;;2.70;1.10;;;14.30;99.90;;;;;;4937199;29;20215;-72
2021/05/27 10:45:07;;;;;;;2.13;1.37;;;14.40;99.90;;;;;;4938563;29;20503;-72
2021/05/27 10:47:35;;;;;;;4.80;1.50;;;14.40;99.90;;;;;;4937139;29;20451;-72
2021/05/27 10:50:05;;;;;;;2.30;1.30;;;14.50;99.90;;;;;;4937182;29;20447;-73
2021/05/27 10:52:46;;;;;;;3.60;1.67;;;14.60;99.90;;;;;;4938205;29;20602;-73
2021/05/27 10:55:49;;;;;;;3.10;1.30;;;14.70;99.90;;;;;;4937164;29;20473;-73
2021/05/27 10:58:18;;;;;;;3.27;1.20;;;14.90;99.90;;;;;;4920593;29;20459;-72
2021/05/27 11:00:54;;;;;;;2.57;1.27;;;15.10;99.90;;;;;;4937085;29;20812;-72
2021/05/27 11:03:46;;;;;;;2.43;1.40;;;15.10;99.90;;;;;;4936952;29;20452;-73
2021/05/27 11:06:25;;;;;;;3.17;1.40;;;15.20;99.90;;;;;;4933177;29;20427;-73
2021/05/27 11:09:30;;;;;;;3.80;1.53;;;15.20;99.90;;;;;;4938533;29;20641;-72
2021/05/27 11:12:08;;;;;;;6.53;2.03;;;15.20;99.90;;;;;;4938145;29;20484;-73
2021/05/27 11:14:40;;;;;;;3.20;1.43;;;15.30;99.90;;;;;;4938149;29;20410;-72
2021/05/27 11:17:24;;;;;;;2.50;1.50;;;15.30;99.90;;;;;;4938266;29;20403;-72
2021/05/27 11:19:57;;;;;;;4.30;1.83;;;15.30;99.90;;;;;;4937848;29;20469;-72
2021/05/27 11:22:54;;;;;;;4.50;1.47;;;15.30;99.90;;;;;;4936498;29;21008;-72
2021/05/27 11:25:41;;;;;;;2.37;1.53;;;15.50;99.90;;;;;;4936446;29;20548;-72
2021/05/27 11:28:38;;;;;;;2.10;1.40;;;15.60;99.90;;;;;;4936337;29;20441;-74
2021/05/27 11:31:07;;;;;;;3.30;1.53;;;15.50;99.90;;;;;;4936165;29;20443;-75
2021/05/27 11:33:43;;;;;;;3.47;1.87;;;15.50;99.90;;;;;;4937802;29;20440;-75
2021/05/27 11:36:18;;;;;;;5.10;1.77;;;15.50;99.90;;;;;;4936321;29;20418;-75
2021/05/27 11:38:46;;;;;;;2.57;1.70;;;15.50;99.90;;;;;;4936225;29;20896;-75
2021/05/27 11:41:18;;;;;;;8.07;1.83;;;15.40;99.90;;;;;;4936046;29;20885;-75
2021/05/27 11:43:58;;;;;;;4.82;2.10;;;15.40;99.90;;;;;;4935251;29;20965;-74
2021/05/27 11:46:29;;;;;;;4.00;1.80;;;15.40;99.90;;;;;;4937299;29;20180;-74
2021/05/27 11:49:00;;;;;;;3.23;1.40;;;15.30;99.90;;;;;;4937350;29;20466;-75
2021/05/27 11:51:33;;;;;;;3.03;1.90;;;15.30;99.90;;;;;;4936181;29;20507;-75
2021/05/27 11:54:06;;;;;;;1.83;1.60;;;15.20;99.90;;;;;;4936053;29;20481;-74
2021/05/27 11:56:38;;;;;;;3.70;1.70;;;15.20;99.90;;;;;;4935906;29;20529;-75
2021/05/27 11:59:07;;;;;;;2.00;1.60;;;15.10;99.90;;;;;;4937249;29;20511;-74
2021/05/27 12:01:36;;;;;;;2.87;1.60;;;15.10;99.90;;;;;;4935715;29;20485;-74
2021/05/27 12:04:19;;;;;;;2.77;1.40;;;15.10;99.90;;;;;;4936812;29;20557;-75
2021/05/27 12:06:56;;;;;;;1.70;1.20;;;15.20;99.90;;;;;;4935708;29;20531;-74
2021/05/27 12:09:26;;;;;;;1.50;1.20;;;15.30;99.90;;;;;;4937026;29;20853;-74
2021/05/27 12:11:55;;;;;;;2.10;1.00;;;15.40;99.90;;;;;;4936152;29;20460;-74
2021/05/27 12:14:23;;;;;;;1.80;1.20;;;15.40;99.90;;;;;;4936663;29;20432;-75
2021/05/27 12:16:54;;;;;;;1.27;1.10;;;15.50;99.90;;;;;;4935489;29;20550;-75
2021/05/27 12:19:22;;;;;;;1.33;1.17;;;15.60;99.90;;;;;;4935433;29;20481;-75
2021/05/27 12:21:55;;;;;;;3.30;1.60;;;15.60;99.90;;;;;;4935442;29;20440;-75
2021/05/27 12:24:28;;;;;;;3.87;1.57;;;15.70;99.90;;;;;;4935429;29;20524;-75
2021/05/27 12:26:58;;;;;;;3.37;1.60;;;15.70;99.90;;;;;;4935424;29;20429;-75
2021/05/27 12:29:26;;;;;;;2.10;1.60;;;15.70;99.90;;;;;;4935193;29;20482;-75
2021/05/27 12:31:55;;;;;;;2.93;1.50;;;15.70;99.90;;;;;;4936507;29;20410;-75
2021/05/27 12:34:22;;;;;;;2.17;1.47;;;15.80;99.90;;;;;;4936465;29;20938;-74
2021/05/27 12:36:55;;;;;;;3.00;1.40;;;15.90;99.90;;;;;;4936418;29;20442;-74
2021/05/27 12:39:37;;;;;;;3.73;1.67;;;15.90;99.90;;;;;;4936555;29;20442;-75
2021/05/27 12:42:07;;;;;;;2.33;1.40;;;15.90;99.90;;;;;;4935169;29;20436;-74
2021/05/27 12:44:44;;;;;;;3.57;2.03;;;15.90;99.90;;;;;;4936532;29;20555;-74
2021/05/27 12:47:14;;;;;;;4.13;2.30;;;15.90;99.90;;;;;;4935126;29;20436;-72
2021/05/27 12:49:42;;;;;;;2.67;2.10;;;15.90;99.90;;;;;;4936197;29;20446;-72
2021/05/27 12:52:11;;;;;;;2.40;2.20;;;15.90;99.90;;;;;;4935110;29;20458;-72
2021/05/27 12:54:39;;;;;;;2.93;1.87;;;16.00;99.90;;;;;;4935091;29;20539;-72
2021/05/27 12:57:08;;;;;;;2.30;2.10;;;16.10;99.90;;;;;;4936423;29;20912;-72
2021/05/27 12:59:38;;;;;;;5.03;2.77;;;16.10;99.90;;;;;;4934769;29;20652;-73
2021/05/27 13:02:10;;;;;;;3.90;2.23;;;16.10;99.90;;;;;;4934817;29;20448;-72
2021/05/27 13:04:38;;;;;;;2.97;2.03;;;16.20;99.90;;;;;;4936054;29;20455;-73
2021/05/27 13:07:08;;;;;;;2.87;2.10;;;16.30;99.90;;;;;;4934809;29;20451;-72
2021/05/27 13:09:50;;;;;;;3.60;2.30;;;16.30;99.90;;;;;;4936229;29;20884;-73
2021/05/27 13:12:20;;;;;;;2.10;1.93;;;16.40;99.90;;;;;;4934796;29;20539;-73
2021/05/27 13:15:06;;;;;;;1.73;1.37;;;16.40;99.90;;;;;;4934774;29;20863;-73